Time;durP1;ratioP1;P1;durP2;ratioP2;P2;SDS_P1;SDS_P2;PMS_P1;PMS_P2;Temp;Humidity;BMP_temperature;BMP_pressure;BME280_temperature;BME280_humidity;BME280_pressure;Samples;Min_cycle;Max_cycle;Signal;HPM_P1;HPM_P2
2021/11/27 00:05:37;;;;;;;21.70;12.90;;;2.30;99.90;;;;;;12259457;28;20052;-38
2021/11/27 00:11:40;;;;;;;20.27;11.98;;;2.30;99.90;;;;;;12265602;28;20605;-39
2021/11/27 00:17:42;;;;;;;20.95;12.65;;;2.30;99.90;;;;;;12256700;28;20054;-38
2021/11/27 00:23:45;;;;;;;21.40;12.35;;;2.30;99.90;;;;;;12256440;28;20114;-37
2021/11/27 00:29:47;;;;;;;22.65;12.80;;;2.30;99.90;;;;;;12259321;28;20062;-39
2021/11/27 00:35:49;;;;;;;20.00;12.13;;;2.30;99.90;;;;;;12256637;28;20055;-39
2021/11/27 00:41:51;;;;;;;17.50;10.80;;;2.30;99.90;;;;;;12261809;28;20047;-38
2021/11/27 00:47:56;;;;;;;18.33;10.75;;;2.40;99.90;;;;;;12266573;28;20139;-37
2021/11/27 00:53:59;;;;;;;19.05;10.90;;;2.40;99.90;;;;;;12268678;28;20043;-39
2021/11/27 01:00:05;;;;;;;17.38;9.77;;;2.50;99.90;;;;;;12267118;28;20048;-37
2021/11/27 01:06:09;;;;;;;12.52;8.27;;;2.50;99.90;;;;;;12269048;28;20489;-38
2021/11/27 01:12:11;;;;;;;13.52;8.63;;;2.60;99.90;;;;;;12267708;28;20051;-38
2021/11/27 01:18:14;;;;;;;12.93;8.30;;;2.60;99.90;;;;;;12266958;28;20059;-38
2021/11/27 01:24:17;;;;;;;13.90;8.93;;;2.60;99.90;;;;;;12269661;28;20946;-37
2021/11/27 01:30:20;;;;;;;15.25;9.07;;;2.60;99.90;;;;;;12264271;28;20055;-37
2021/11/27 01:36:22;;;;;;;13.77;8.27;;;2.50;99.90;;;;;;12267777;28;20051;-38
2021/11/27 01:42:25;;;;;;;13.02;8.15;;;2.60;99.90;;;;;;12271614;28;20143;-38
2021/11/27 01:48:28;;;;;;;12.65;7.85;;;2.50;99.90;;;;;;12267999;28;20055;-39
2021/11/27 01:54:30;;;;;;;11.10;7.97;;;2.50;99.90;;;;;;12268113;28;20093;-39
2021/11/27 02:00:37;;;;;;;11.73;7.43;;;2.50;99.90;;;;;;12266965;28;20051;-39
2021/11/27 02:14:06;;;;;;;;;;;2.60;99.90;;;;;;12269890;28;20075;-37
2021/11/27 02:20:10;;;;;;;12.18;6.93;;;2.70;99.90;;;;;;12266371;28;19993;-38
2021/11/27 02:26:16;;;;;;;9.07;6.00;;;2.80;99.90;;;;;;12269813;28;20062;-38
2021/11/27 02:32:18;;;;;;;8.43;6.27;;;2.80;99.90;;;;;;12268250;28;20054;-39
2021/11/27 02:38:20;;;;;;;9.45;6.30;;;2.80;99.90;;;;;;12269416;28;20055;-37
2021/11/27 02:44:29;;;;;;;8.60;5.88;;;2.80;99.90;;;;;;12261468;28;20113;-38
2021/11/27 02:50:31;;;;;;;7.43;4.85;;;2.80;99.90;;;;;;12267433;28;20424;-40
2021/11/27 02:56:33;;;;;;;8.45;5.05;;;2.90;99.90;;;;;;12264611;28;20122;-38
2021/11/27 03:02:35;;;;;;;7.68;4.90;;;2.90;99.90;;;;;;12263696;28;20051;-37
2021/11/27 03:08:40;;;;;;;7.25;5.25;;;2.90;99.90;;;;;;12264421;28;20055;-39
2021/11/27 03:14:42;;;;;;;8.00;5.20;;;2.90;99.90;;;;;;12260664;28;20490;-39
2021/11/27 03:20:44;;;;;;;7.60;5.15;;;2.90;99.90;;;;;;12265993;28;20296;-38
2021/11/27 03:26:46;;;;;;;6.60;4.65;;;2.90;99.90;;;;;;12262982;28;20055;-39
2021/11/27 03:32:49;;;;;;;6.85;4.82;;;2.90;99.90;;;;;;12260763;28;20130;-38
2021/11/27 03:38:51;;;;;;;7.95;5.22;;;2.90;99.90;;;;;;12268603;28;20048;-39
2021/11/27 03:44:53;;;;;;;8.23;5.38;;;2.90;99.90;;;;;;12264346;28;20118;-39
2021/11/27 03:50:56;;;;;;;7.70;4.95;;;2.80;99.90;;;;;;12255961;28;20590;-38
2021/11/27 03:56:59;;;;;;;6.80;4.95;;;2.80;99.90;;;;;;12261072;28;20567;-39
2021/11/27 04:03:01;;;;;;;6.63;4.53;;;2.80;99.90;;;;;;12260903;28;20058;-39
2021/11/27 04:09:07;;;;;;;6.30;4.55;;;2.70;99.90;;;;;;12260641;28;20434;-38
2021/11/27 04:15:09;;;;;;;7.20;4.63;;;2.70;99.90;;;;;;12262708;28;20059;-38
2021/11/27 04:21:12;;;;;;;5.95;4.13;;;2.70;99.90;;;;;;12262271;28;20130;-39
2021/11/27 04:27:14;;;;;;;7.70;4.68;;;2.70;99.90;;;;;;12269081;28;20047;-39
2021/11/27 04:33:16;;;;;;;7.25;4.88;;;2.80;99.90;;;;;;12269664;28;20047;-39
2021/11/27 04:39:18;;;;;;;7.18;4.75;;;2.80;99.90;;;;;;12272519;28;20385;-38
2021/11/27 04:45:20;;;;;;;6.35;4.63;;;2.80;99.90;;;;;;12267541;28;20090;-38
2021/11/27 04:51:22;;;;;;;7.10;5.10;;;2.80;99.90;;;;;;12268810;28;20134;-39
2021/11/27 04:57:25;;;;;;;8.20;5.72;;;2.80;99.90;;;;;;12265868;28;20059;-38
2021/11/27 05:03:27;;;;;;;7.82;5.22;;;2.80;99.90;;;;;;12276453;28;20055;-38
2021/11/27 05:09:29;;;;;;;7.65;5.07;;;2.80;99.90;;;;;;12269902;28;20050;-37
2021/11/27 05:15:31;;;;;;;7.20;5.63;;;2.80;99.90;;;;;;12269102;28;20055;-39
2021/11/27 05:21:32;;;;;;;7.50;5.32;;;2.80;99.90;;;;;;12266889;28;20825;-39
2021/11/27 05:27:36;;;;;;;9.32;5.70;;;2.80;99.90;;;;;;12268954;28;20118;-39
2021/11/27 05:39:47;;;;;;;7.50;5.45;;;2.70;99.90;;;;;;12267860;28;20678;-38
2021/11/27 05:45:50;;;;;;;6.68;4.60;;;2.70;99.90;;;;;;12264993;28;20070;-38
2021/11/27 05:51:51;;;;;;;7.28;4.82;;;2.70;99.90;;;;;;12264918;28;20097;-38
2021/11/27 05:57:53;;;;;;;6.20;4.40;;;2.70;99.90;;;;;;12270359;28;20166;-37
2021/11/27 06:03:55;;;;;;;6.88;4.78;;;2.70;99.90;;;;;;12267948;28;20431;-38
2021/11/27 06:09:57;;;;;;;6.63;4.68;;;2.70;99.90;;;;;;12263119;28;20051;-39
2021/11/27 06:16:00;;;;;;;7.63;4.95;;;2.60;99.90;;;;;;12268399;28;20102;-39
2021/11/27 06:22:02;;;;;;;7.05;4.82;;;2.50;99.90;;;;;;12266547;28;20551;-39
2021/11/27 06:28:05;;;;;;;7.43;5.38;;;2.50;99.90;;;;;;12267274;28;20772;-37
2021/11/27 06:34:07;;;;;;;7.55;5.22;;;2.50;99.90;;;;;;12268647;28;20047;-38
2021/11/27 06:40:10;;;;;;;6.95;4.97;;;2.50;99.90;;;;;;12264330;28;20052;-39
2021/11/27 06:46:12;;;;;;;10.27;5.70;;;2.60;99.90;;;;;;12264216;28;20063;-38
2021/11/27 06:52:15;;;;;;;7.82;5.43;;;2.60;99.90;;;;;;12270879;28;20458;-38
2021/11/27 06:58:17;;;;;;;7.32;5.60;;;2.70;99.90;;;;;;12265244;28;20101;-39
2021/11/27 07:04:20;;;;;;;7.68;5.88;;;2.70;99.90;;;;;;12266946;28;20066;-38
2021/11/27 07:10:27;;;;;;;8.85;5.88;;;2.70;99.90;;;;;;12272540;28;20858;-40
2021/11/27 07:16:34;;;;;;;7.82;5.50;;;2.70;99.90;;;;;;12270123;28;20674;-39
2021/11/27 07:22:41;;;;;;;7.85;5.78;;;2.80;99.90;;;;;;12272685;28;20135;-39
2021/11/27 07:28:43;;;;;;;8.50;5.90;;;2.80;99.90;;;;;;12265999;28;20052;-38
2021/11/27 07:34:46;;;;;;;8.57;6.03;;;2.80;99.90;;;;;;12269706;28;20055;-39
2021/11/27 07:40:48;;;;;;;8.23;5.60;;;2.80;99.90;;;;;;12269739;28;20578;-40
2021/11/27 07:46:56;;;;;;;8.57;6.32;;;2.90;99.90;;;;;;12270070;28;20451;-39
2021/11/27 07:52:59;;;;;;;8.13;6.22;;;2.90;99.90;;;;;;12262094;28;20083;-38
2021/11/27 07:59:02;;;;;;;8.45;5.78;;;2.90;99.90;;;;;;12265408;28;20043;-39
2021/11/27 08:05:05;;;;;;;7.60;5.72;;;2.90;99.90;;;;;;12268296;28;20165;-39
2021/11/27 08:11:09;;;;;;;8.03;5.87;;;2.90;99.90;;;;;;12262718;28;20222;-39
2021/11/27 08:17:11;;;;;;;7.78;5.80;;;3.00;99.90;;;;;;12279441;28;20046;-39
2021/11/27 08:23:20;;;;;;;7.45;5.50;;;3.00;99.90;;;;;;12262223;28;20047;-38
2021/11/27 08:29:28;;;;;;;8.43;5.45;;;3.10;99.90;;;;;;12271044;28;20059;-38
2021/11/27 08:35:30;;;;;;;8.02;4.95;;;3.20;99.90;;;;;;12263841;28;20113;-38
2021/11/27 08:41:36;;;;;;;6.60;4.97;;;3.20;99.90;;;;;;12263494;28;20164;-38
2021/11/27 08:47:50;;;;;;;6.10;4.32;;;3.20;99.90;;;;;;12273811;28;20054;-38
2021/11/27 08:54:04;;;;;;;7.60;4.28;;;3.30;99.90;;;;;;12280956;28;20066;-38
2021/11/27 09:00:20;;;;;;;6.00;4.43;;;3.30;99.90;;;;;;12277898;28;20043;-39
2021/11/27 09:06:40;;;;;;;6.22;4.13;;;3.40;99.90;;;;;;12270782;28;20067;-38
2021/11/27 09:12:59;;;;;;;5.43;4.05;;;3.50;99.90;;;;;;12269495;28;20079;-39
2021/11/27 09:19:14;;;;;;;5.60;4.18;;;3.50;99.90;;;;;;12278846;28;20090;-39
2021/11/27 09:25:34;;;;;;;8.73;5.28;;;3.50;99.90;;;;;;12283878;28;20063;-39
2021/11/27 09:31:58;;;;;;;9.07;6.22;;;3.40;99.90;;;;;;12280746;28;20504;-37
2021/11/27 09:38:18;;;;;;;13.10;8.23;;;3.30;99.90;;;;;;12291863;28;20075;-39
2021/11/27 09:44:39;;;;;;;14.18;9.68;;;3.30;99.90;;;;;;12285936;28;20055;-39
2021/11/27 09:51:01;;;;;;;18.35;11.07;;;3.20;99.90;;;;;;12285139;28;20059;-38
2021/11/27 09:57:24;;;;;;;17.85;11.18;;;3.30;99.90;;;;;;12286400;28;20047;-39
2021/11/27 10:03:40;;;;;;;17.10;11.30;;;3.50;99.90;;;;;;12280931;28;20060;-38
2021/11/27 10:09:59;;;;;;;17.50;11.23;;;3.70;99.90;;;;;;12283660;28;20062;-39
2021/11/27 10:16:22;;;;;;;16.60;10.70;;;3.80;99.90;;;;;;12282980;28;20125;-39
2021/11/27 10:22:54;;;;;;;16.73;10.85;;;3.70;99.90;;;;;;12282781;28;20090;-38
2021/11/27 10:29:36;;;;;;;15.77;10.25;;;3.60;99.90;;;;;;12279750;28;20048;-39
2021/11/27 10:36:04;;;;;;;15.50;9.15;;;3.70;99.90;;;;;;12284254;28;20043;-39
2021/11/27 10:42:19;;;;;;;16.30;9.80;;;3.60;99.90;;;;;;12279392;28;20046;-38
2021/11/27 10:48:28;;;;;;;14.77;8.20;;;3.60;99.90;;;;;;12273052;28;20074;-39
2021/11/27 10:54:59;;;;;;;13.27;9.27;;;3.50;99.90;;;;;;12270960;28;20401;-38
2021/11/27 11:01:06;;;;;;;14.00;9.90;;;3.50;99.90;;;;;;12276900;28;20047;-39
2021/11/27 11:07:27;;;;;;;16.08;10.82;;;3.50;99.90;;;;;;12279787;28;20055;-39
2021/11/27 11:13:32;;;;;;;21.95;13.13;;;3.50;99.90;;;;;;12262762;28;20089;-39
2021/11/27 11:19:52;;;;;;;20.98;12.68;;;3.50;99.90;;;;;;12264943;28;20048;-38
2021/11/27 11:26:17;;;;;;;19.88;12.98;;;3.60;99.90;;;;;;12265880;28;20087;-38
2021/11/27 11:32:27;;;;;;;21.50;13.00;;;3.60;99.90;;;;;;12264320;28;20400;-37
2021/11/27 11:38:31;;;;;;;23.38;13.75;;;3.60;99.90;;;;;;12265380;28;20051;-39
2021/11/27 11:44:41;;;;;;;24.53;14.40;;;3.50;99.90;;;;;;12276611;28;20102;-38
2021/11/27 11:50:47;;;;;;;25.33;14.88;;;3.60;99.90;;;;;;12268446;28;20058;-39
2021/11/27 11:57:08;;;;;;;26.23;14.60;;;3.60;99.90;;;;;;12272647;28;20052;-39
2021/11/27 12:03:12;;;;;;;24.83;15.82;;;3.60;99.90;;;;;;12252850;28;20051;-38
2021/11/27 12:09:15;;;;;;;26.77;15.65;;;3.60;99.90;;;;;;12205744;28;1675817;-38
2021/11/27 12:15:29;;;;;;;25.23;14.95;;;3.60;99.90;;;;;;12263560;28;20047;-38
2021/11/27 12:21:31;;;;;;;30.33;15.75;;;3.70;99.90;;;;;;12259253;28;20135;-38
2021/11/27 12:27:55;;;;;;;28.08;15.60;;;3.70;99.90;;;;;;12264362;28;20188;-38
2021/11/27 12:34:01;;;;;;;24.20;14.80;;;3.80;99.90;;;;;;12265533;28;20059;-38
2021/11/27 12:40:36;;;;;;;25.60;14.73;;;3.80;99.90;;;;;;12271619;28;20213;-39
2021/11/27 12:47:27;;;;;;;22.55;13.90;;;3.80;99.90;;;;;;12279529;28;20058;-39
2021/11/27 12:53:33;;;;;;;24.00;14.32;;;3.80;99.90;;;;;;12271434;28;20102;-39
2021/11/27 12:59:36;;;;;;;25.50;15.18;;;3.90;99.90;;;;;;12271104;28;20055;-38
2021/11/27 13:05:40;;;;;;;24.55;15.15;;;3.90;99.90;;;;;;12268512;28;20058;-39
2021/11/27 13:11:45;;;;;;;25.98;15.48;;;3.90;99.90;;;;;;12270988;28;20401;-39
2021/11/27 13:18:13;;;;;;;25.65;14.52;;;3.90;99.90;;;;;;12272845;28;20110;-39
2021/11/27 13:24:15;;;;;;;23.15;13.10;;;4.00;99.90;;;;;;12266493;28;20142;-38
2021/11/27 13:30:17;;;;;;;22.25;13.40;;;4.00;99.90;;;;;;12272219;28;20055;-38
2021/11/27 13:36:27;;;;;;;20.02;11.80;;;4.00;99.90;;;;;;12268379;28;20044;-38
2021/11/27 13:42:33;;;;;;;16.92;11.32;;;4.00;99.90;;;;;;12268872;28;20067;-39
2021/11/27 13:48:35;;;;;;;18.42;11.05;;;4.00;99.90;;;;;;12271545;28;20222;-39
2021/11/27 13:54:38;;;;;;;16.23;10.98;;;4.00;99.90;;;;;;12266951;28;20058;-39
2021/11/27 14:00:40;;;;;;;19.95;11.90;;;3.90;99.90;;;;;;12267239;28;20043;-38
2021/11/27 14:06:59;;;;;;;19.30;11.25;;;3.90;99.90;;;;;;12266627;28;20499;-39
2021/11/27 14:13:09;;;;;;;20.27;12.10;;;3.90;99.90;;;;;;12265045;28;20134;-39
2021/11/27 14:19:15;;;;;;;21.73;12.68;;;4.00;99.90;;;;;;12270181;28;20048;-39
2021/11/27 14:25:19;;;;;;;22.23;13.43;;;4.00;99.90;;;;;;12265696;28;20130;-38
2021/11/27 14:31:32;;;;;;;22.45;13.00;;;3.90;99.90;;;;;;12262714;28;20054;-38
2021/11/27 14:37:50;;;;;;;26.77;14.18;;;4.00;99.90;;;;;;12265946;28;20055;-39
2021/11/27 14:44:07;;;;;;;32.17;13.38;;;3.90;99.90;;;;;;12268328;28;20087;-38
2021/11/27 14:50:13;;;;;;;28.17;13.45;;;3.90;99.90;;;;;;12262258;28;20051;-38
2021/11/27 14:56:15;;;;;;;25.58;13.65;;;3.90;99.90;;;;;;12266475;28;20055;-39
2021/11/27 15:02:19;;;;;;;26.52;13.95;;;3.90;99.90;;;;;;12265656;28;20048;-39
2021/11/27 15:08:21;;;;;;;31.65;13.93;;;3.90;99.90;;;;;;12259473;28;20087;-39
2021/11/27 15:14:23;;;;;;;31.90;14.27;;;3.80;99.90;;;;;;12259953;28;20079;-38
2021/11/27 15:20:25;;;;;;;27.77;14.73;;;3.80;99.90;;;;;;12264549;28;20058;-39
2021/11/27 15:26:30;;;;;;;29.63;14.10;;;3.70;99.90;;;;;;12263405;28;20055;-37
2021/11/27 15:32:33;;;;;;;28.55;14.45;;;3.70;99.90;;;;;;12262357;28;20059;-39
2021/11/27 15:38:35;;;;;;;28.67;13.63;;;3.70;99.90;;;;;;12266276;28;20047;-39
2021/11/27 15:44:37;;;;;;;26.90;14.15;;;3.60;99.90;;;;;;12263351;28;20047;-38
2021/11/27 15:50:41;;;;;;;23.70;13.88;;;3.60;99.90;;;;;;12259201;28;20039;-39
2021/11/27 15:56:44;;;;;;;31.50;14.07;;;3.60;99.90;;;;;;12260125;28;20147;-39
2021/11/27 16:02:46;;;;;;;29.50;13.85;;;3.60;99.90;;;;;;12254016;28;20090;-38
2021/11/27 16:08:50;;;;;;;28.35;14.00;;;3.60;99.90;;;;;;12258150;28;20059;-39
2021/11/27 16:15:00;;;;;;;25.10;13.60;;;3.50;99.90;;;;;;12256944;28;20047;-39
2021/11/27 16:21:07;;;;;;;30.45;14.88;;;3.50;99.90;;;;;;12258446;28;20055;-38
2021/11/27 16:27:10;;;;;;;28.00;13.93;;;3.50;99.90;;;;;;12262851;28;20055;-37
2021/11/27 16:33:13;;;;;;;28.23;14.13;;;3.40;99.90;;;;;;12265050;28;20097;-38
2021/11/27 16:39:15;;;;;;;29.30;14.82;;;3.40;99.90;;;;;;12261055;28;20515;-37
2021/11/27 16:45:18;;;;;;;26.50;14.13;;;3.40;99.90;;;;;;12261701;28;20139;-38
2021/11/27 16:51:25;;;;;;;29.35;13.85;;;3.30;99.90;;;;;;12260544;28;20158;-39
2021/11/27 16:57:27;;;;;;;26.75;14.38;;;3.30;99.90;;;;;;12263421;28;20043;-37
2021/11/27 17:03:29;;;;;;;28.63;13.93;;;3.20;99.90;;;;;;12257229;28;20075;-38
2021/11/27 17:09:31;;;;;;;31.45;13.65;;;3.00;99.90;;;;;;12226782;28;20099;-38
2021/11/27 17:15:33;;;;;;;30.75;13.60;;;2.90;99.90;;;;;;12213041;29;20060;-39
2021/11/27 17:21:39;;;;;;;24.50;13.68;;;2.70;99.90;;;;;;12212369;29;20098;-39
2021/11/27 17:27:41;;;;;;;24.83;11.60;;;2.60;99.90;;;;;;12211843;29;20097;-38
2021/11/27 17:33:43;;;;;;;24.23;11.15;;;2.60;99.90;;;;;;12211777;29;20051;-38
2021/11/27 17:39:44;;;;;;;21.23;10.32;;;2.70;99.90;;;;;;12219710;29;20074;-39
2021/11/27 17:45:46;;;;;;;21.88;9.13;;;2.70;99.90;;;;;;12219375;29;20079;-39
2021/11/27 17:51:48;;;;;;;22.95;8.02;;;2.70;99.90;;;;;;12218812;29;20090;-39
2021/11/27 17:57:50;;;;;;;18.40;7.60;;;2.60;99.90;;;;;;12220541;29;20051;-39
2021/11/27 18:03:52;;;;;;;29.40;9.40;;;2.50;99.90;;;;;;12217151;29;20056;-38
2021/11/27 18:09:55;;;;;;;34.58;12.27;;;2.40;99.90;;;;;;12215791;29;20060;-39
2021/11/27 18:15:57;;;;;;;17.75;6.93;;;2.20;99.90;;;;;;12213539;29;20098;-38
2021/11/27 18:22:00;;;;;;;14.90;6.78;;;2.10;99.90;;;;;;12215883;29;20051;-38
2021/11/27 18:28:03;;;;;;;21.27;6.40;;;2.10;99.90;;;;;;12217445;29;20483;-37
2021/11/27 18:34:06;;;;;;;17.48;5.68;;;2.00;99.90;;;;;;12212359;29;20047;-40
2021/11/27 18:40:10;;;;;;;14.85;6.45;;;2.00;99.90;;;;;;12219923;29;20107;-39
2021/11/27 18:46:13;;;;;;;15.90;5.93;;;2.00;99.90;;;;;;12210449;29;20059;-38
2021/11/27 18:52:18;;;;;;;18.52;6.25;;;2.00;99.90;;;;;;12214825;29;20044;-39
2021/11/27 18:58:21;;;;;;;15.50;5.85;;;1.90;99.90;;;;;;12216051;29;20048;-38
2021/11/27 19:04:23;;;;;;;12.93;5.50;;;2.00;99.90;;;;;;12214142;29;20501;-38
2021/11/27 19:10:25;;;;;;;21.65;7.28;;;1.90;99.90;;;;;;12210956;29;20142;-38
2021/11/27 19:16:28;;;;;;;15.38;6.05;;;1.80;99.90;;;;;;12221146;29;20056;-38
2021/11/27 19:22:33;;;;;;;15.02;6.20;;;1.70;99.90;;;;;;12219338;29;20492;-38
2021/11/27 19:28:36;;;;;;;19.75;7.63;;;1.70;99.90;;;;;;12219928;29;20099;-38
2021/11/27 19:34:38;;;;;;;16.40;7.68;;;1.70;99.90;;;;;;12223313;29;20052;-38
2021/11/27 19:40:40;;;;;;;16.70;7.20;;;1.60;99.90;;;;;;12217861;29;20052;-38
2021/11/27 19:46:42;;;;;;;17.42;8.43;;;1.60;99.90;;;;;;12217418;29;20051;-39
2021/11/27 19:52:44;;;;;;;14.57;6.68;;;1.60;99.90;;;;;;12225480;29;20086;-38
2021/11/27 19:58:47;;;;;;;12.93;7.15;;;1.70;99.90;;;;;;12222614;29;20118;-38
2021/11/27 20:04:49;;;;;;;11.25;6.32;;;1.60;99.90;;;;;;12220478;29;20548;-39
2021/11/27 20:10:53;;;;;;;14.65;7.18;;;1.60;99.90;;;;;;12211021;29;20063;-39
2021/11/27 20:16:56;;;;;;;10.93;6.28;;;1.60;99.90;;;;;;12216538;29;20058;-39
2021/11/27 20:22:58;;;;;;;14.73;6.38;;;1.50;99.90;;;;;;12214372;29;20063;-39
2021/11/27 20:29:00;;;;;;;11.15;6.05;;;1.50;99.90;;;;;;12215646;29;20585;-38
2021/11/27 20:35:03;;;;;;;17.30;6.95;;;1.50;99.90;;;;;;12211381;29;20051;-39
2021/11/27 20:41:07;;;;;;;16.73;6.63;;;1.50;99.90;;;;;;12211972;29;20501;-37
2021/11/27 20:47:10;;;;;;;11.77;5.72;;;1.40;99.90;;;;;;12212202;29;20063;-39
2021/11/27 20:53:12;;;;;;;12.75;6.60;;;1.40;99.90;;;;;;12211971;29;20424;-38
2021/11/27 20:59:14;;;;;;;12.05;6.15;;;1.40;99.90;;;;;;12210081;29;20548;-38
2021/11/27 21:05:16;;;;;;;10.23;5.60;;;1.40;99.90;;;;;;12221878;29;20087;-37
2021/11/27 21:11:31;;;;;;;12.68;5.75;;;1.30;99.90;;;;;;12267478;28;20527;-39
2021/11/27 21:17:34;;;;;;;15.02;5.90;;;1.30;99.90;;;;;;12252275;28;20143;-39
2021/11/27 21:23:36;;;;;;;12.00;5.72;;;1.30;99.90;;;;;;12264245;28;20518;-37
2021/11/27 21:29:38;;;;;;;14.73;6.32;;;1.20;99.90;;;;;;12270957;28;20058;-39
2021/11/27 21:35:41;;;;;;;13.43;6.10;;;1.20;99.90;;;;;;12262309;28;20051;-38
2021/11/27 21:41:43;;;;;;;12.98;6.53;;;1.20;99.90;;;;;;12261293;28;20055;-39
2021/11/27 21:47:45;;;;;;;9.55;5.20;;;1.20;99.90;;;;;;12265313;28;20098;-38
2021/11/27 21:53:47;;;;;;;14.45;5.97;;;1.10;99.90;;;;;;12267812;28;20624;-38
2021/11/27 21:59:54;;;;;;;11.43;5.35;;;1.10;99.90;;;;;;12266354;28;20480;-39
2021/11/27 22:05:55;;;;;;;11.82;5.68;;;1.10;99.90;;;;;;12259777;28;20083;-39
2021/11/27 22:11:58;;;;;;;11.98;5.32;;;1.10;99.90;;;;;;12244670;28;20139;-39
2021/11/27 22:18:00;;;;;;;16.08;5.63;;;1.00;99.90;;;;;;12261832;28;20094;-38
2021/11/27 22:24:02;;;;;;;10.45;5.15;;;1.00;99.90;;;;;;12265032;28;20078;-39
2021/11/27 22:30:05;;;;;;;24.88;6.90;;;1.00;99.90;;;;;;12266116;28;20051;-38
2021/11/27 22:36:07;;;;;;;10.52;4.95;;;1.00;99.90;;;;;;12262292;28;20117;-38
2021/11/27 22:42:09;;;;;;;10.25;4.72;;;1.10;99.90;;;;;;12262497;28;20102;-37
2021/11/27 22:48:11;;;;;;;15.85;4.93;;;1.10;99.90;;;;;;12257845;28;20051;-38
2021/11/27 22:54:14;;;;;;;10.13;4.03;;;1.00;99.90;;;;;;12260118;28;20091;-37
2021/11/27 23:00:24;;;;;;;12.77;4.78;;;1.00;99.90;;;;;;12260090;28;20048;-38
2021/11/27 23:06:27;;;;;;;13.73;5.10;;;1.10;99.90;;;;;;12267530;28;20118;-38
2021/11/27 23:12:29;;;;;;;7.32;4.15;;;1.10;99.90;;;;;;12261134;28;20539;-37
2021/11/27 23:18:39;;;;;;;11.18;4.57;;;1.10;99.90;;;;;;12261955;28;20109;-40
2021/11/27 23:24:42;;;;;;;8.88;4.40;;;1.00;99.90;;;;;;12259574;28;20054;-37
2021/11/27 23:30:44;;;;;;;10.05;4.18;;;0.90;99.90;;;;;;12263179;28;20909;-37
2021/11/27 23:36:46;;;;;;;12.88;4.43;;;0.90;99.90;;;;;;12258317;28;20167;-38
2021/11/27 23:42:49;;;;;;;9.80;3.90;;;0.90;99.90;;;;;;12256330;28;20553;-38
2021/11/27 23:48:51;;;;;;;10.95;5.03;;;1.00;99.90;;;;;;12260954;28;20408;-37
2021/11/27 23:54:53;;;;;;;9.50;4.18;;;1.00;99.90;;;;;;12260258;28;20083;-38
